createdAt,value
2022-08-22T00:00:00.263Z,2.17
2022-08-22T00:00:17.755Z,2.40
2022-08-22T00:00:37.680Z,2.15
2022-08-22T00:01:32.024Z,2.35
2022-08-22T00:02:02.961Z,2.20
2022-08-22T00:02:33.473Z,2.20
2022-08-22T00:02:41.623Z,5.22
2022-08-22T00:02:42.145Z,6.65
2022-08-22T00:02:43.483Z,2.30
2022-08-22T00:02:43.622Z,2.38
2022-08-22T00:02:44.824Z,3.97
2022-08-22T00:02:45.888Z,2.30
2022-08-22T00:02:46.391Z,2.40
2022-08-22T00:02:46.654Z,2.50
2022-08-22T00:02:49.417Z,2.30
2022-08-22T00:02:53.348Z,3.80
2022-08-22T00:02:53.911Z,2.70
2022-08-22T00:02:59.527Z,2.28
2022-08-22T00:02:59.810Z,4.10
2022-08-22T00:03:00.349Z,4.00
2022-08-22T00:03:01.344Z,2.50
2022-08-22T00:03:02.382Z,2.17
2022-08-22T00:03:04.491Z,3.92
2022-08-22T00:03:07.260Z,2.42
2022-08-22T00:03:07.584Z,5.45
2022-08-22T00:03:09.503Z,2.15
2022-08-22T00:03:10.387Z,2.50
2022-08-22T00:03:10.470Z,2.50
2022-08-22T00:03:10.555Z,6.45
2022-08-22T00:03:15.129Z,2.33
2022-08-22T00:03:15.953Z,2.33
2022-08-22T00:03:46.739Z,2.33
2022-08-22T00:04:14.540Z,2.40
2022-08-22T00:04:34.315Z,2.60
2022-08-22T00:05:02.497Z,2.38
2022-08-22T00:05:51.940Z,2.50
2022-08-22T00:06:10.953Z,2.22
2022-08-22T00:06:40.409Z,2.40
2022-08-22T00:07:07.886Z,2.40
2022-08-22T00:07:32.391Z,2.15
2022-08-22T00:08:00.496Z,2.30
2022-08-22T00:08:26.750Z,2.40
2022-08-22T00:08:47.044Z,2.17
2022-08-22T00:08:58.933Z,2.05
2022-08-22T00:09:43.543Z,2.25
2022-08-22T00:10:04.637Z,2.22
2022-08-22T00:10:25.602Z,2.20
2022-08-22T00:10:59.606Z,2.30
2022-08-22T00:11:41.868Z,2.33
2022-08-22T00:12:08.794Z,2.40
2022-08-22T00:12:52.840Z,2.50
2022-08-22T00:13:18.050Z,2.33
2022-08-22T00:14:02.862Z,2.63
2022-08-22T00:14:22.837Z,2.40
2022-08-22T00:15:13.210Z,2.35
2022-08-22T00:15:53.335Z,2.25
2022-08-22T00:16:29.190Z,2.35
2022-08-22T00:16:49.135Z,2.30
2022-08-22T00:17:20.443Z,2.50
2022-08-22T00:17:50.265Z,2.20
2022-08-22T00:18:40.194Z,2.40
2022-08-22T00:18:52.300Z,2.70
2022-08-22T00:19:21.982Z,2.53
2022-08-22T00:19:51.860Z,2.50
2022-08-22T00:20:13.225Z,2.50
2022-08-22T00:20:35.832Z,2.45
2022-08-22T00:21:32.927Z,2.45
2022-08-22T00:21:47.749Z,2.60
2022-08-22T00:22:32.354Z,2.50
2022-08-22T00:23:26.007Z,2.40
2022-08-22T00:24:04.212Z,2.72
2022-08-22T00:24:30.303Z,2.35
2022-08-22T00:24:53.009Z,2.47
2022-08-22T00:25:26.890Z,2.40
2022-08-22T00:25:51.331Z,2.50
2022-08-22T00:26:44.740Z,2.75
2022-08-22T00:27:10.870Z,2.35
2022-08-22T00:27:34.073Z,2.50
2022-08-22T00:27:56.728Z,2.67
2022-08-22T00:28:08.929Z,2.70
2022-08-22T00:28:38.127Z,2.50
2022-08-22T00:29:00.123Z,2.60
2022-08-22T00:29:38.655Z,2.47
2022-08-22T00:30:15.902Z,2.67
2022-08-22T00:30:30.262Z,2.53
2022-08-22T00:30:50.368Z,2.45
2022-08-22T00:31:19.534Z,2.70
2022-08-22T00:31:39.923Z,2.60
2022-08-22T00:32:06.936Z,2.50
2022-08-22T00:32:29.816Z,2.85
2022-08-22T00:33:05.224Z,2.80
2022-08-22T00:33:38.983Z,2.80
2022-08-22T00:34:29.980Z,2.58
2022-08-22T00:35:00.043Z,2.58
2022-08-22T00:35:23.388Z,2.53
2022-08-22T00:35:45.393Z,2.60
2022-08-22T00:36:09.453Z,2.40
2022-08-22T00:36:47.638Z,2.60
2022-08-22T00:37:02.955Z,2.45
2022-08-22T00:37:46.186Z,2.53
2022-08-22T00:38:21.933Z,2.35
2022-08-22T00:38:38.579Z,2.28
2022-08-22T00:39:02.823Z,2.40
2022-08-22T00:39:39.473Z,2.58
2022-08-22T00:40:09.323Z,2.38
2022-08-22T00:40:45.154Z,2.60
2022-08-22T00:41:05.752Z,2.60
2022-08-22T00:41:54.554Z,2.78
2022-08-22T00:42:32.365Z,2.58
2022-08-22T00:43:13.416Z,2.50
2022-08-22T00:43:37.224Z,2.30
2022-08-22T00:44:16.847Z,2.30
2022-08-22T00:44:46.183Z,2.50
2022-08-22T00:45:11.691Z,2.58
2022-08-22T00:45:27.308Z,2.60
2022-08-22T00:46:16.509Z,2.60
2022-08-22T00:46:46.323Z,2.63
2022-08-22T00:47:06.340Z,2.80
2022-08-22T00:47:55.467Z,2.63
2022-08-22T00:48:10.382Z,2.50
2022-08-22T00:48:45.369Z,2.42
2022-08-22T00:49:09.218Z,2.67
2022-08-22T00:49:48.659Z,2.67
2022-08-22T00:50:15.647Z,2.92
2022-08-22T00:50:46.259Z,2.85
2022-08-22T00:51:25.595Z,2.58
2022-08-22T00:51:47.576Z,2.85
2022-08-22T00:52:11.543Z,2.47
2022-08-22T00:52:44.670Z,2.53
2022-08-22T00:53:17.961Z,2.42
2022-08-22T00:53:49.259Z,2.53
2022-08-22T00:54:04.502Z,2.60
2022-08-22T00:54:48.935Z,2.33
2022-08-22T00:55:21.444Z,2.60
2022-08-22T00:55:46.098Z,2.53
2022-08-22T00:56:18.747Z,2.55
2022-08-22T00:56:45.212Z,2.70
2022-08-22T00:57:03.342Z,2.45
2022-08-22T00:57:24.238Z,2.63
2022-08-22T00:58:06.561Z,2.60
2022-08-22T00:58:53.482Z,2.55
2022-08-22T00:59:27.224Z,2.63
2022-08-22T01:00:09.590Z,2.67
2022-08-22T01:00:27.267Z,2.63
2022-08-22T01:00:44.865Z,2.58
2022-08-22T01:01:07.507Z,2.63
2022-08-22T01:01:26.934Z,2.90
2022-08-22T01:02:05.884Z,2.70
2022-08-22T01:02:32.814Z,2.55
2022-08-22T01:03:02.717Z,2.60
2022-08-22T01:03:46.631Z,2.65
2022-08-22T01:04:32.651Z,2.58
2022-08-22T01:05:02.252Z,2.67
2022-08-22T01:05:38.954Z,2.70
2022-08-22T01:06:09.564Z,2.38
2022-08-22T01:06:36.586Z,2.45
2022-08-22T01:07:15.101Z,2.47
2022-08-22T01:07:30.622Z,2.60
2022-08-22T01:08:19.654Z,2.60
2022-08-22T01:09:14.003Z,2.42
2022-08-22T01:09:58.333Z,2.30
2022-08-22T01:10:23.808Z,2.47
2022-08-22T01:10:54.720Z,2.60
2022-08-22T01:11:09.289Z,2.40
2022-08-22T01:11:45.775Z,2.53
2022-08-22T01:12:06.375Z,2.78
2022-08-22T01:12:27.461Z,3.05
2022-08-22T01:13:03.726Z,2.83
2022-08-22T01:13:24.695Z,2.60
2022-08-22T01:13:57.732Z,2.50
2022-08-22T01:14:35.159Z,2.22
2022-08-22T01:14:59.131Z,2.50
2022-08-22T01:15:15.870Z,2.40
2022-08-22T01:15:31.503Z,2.40
2022-08-22T01:15:45.959Z,2.60
2022-08-22T01:16:27.823Z,2.70
2022-08-22T01:17:05.283Z,2.50
2022-08-22T01:17:51.146Z,2.50
2022-08-22T01:18:24.109Z,2.60
2022-08-22T01:19:07.258Z,2.70
2022-08-22T01:19:52.677Z,2.60
2022-08-22T01:20:23.276Z,2.80
2022-08-22T01:20:35.141Z,2.70
2022-08-22T01:21:24.149Z,2.60
2022-08-22T01:22:07.319Z,2.58
2022-08-22T01:22:31.734Z,2.63
2022-08-22T01:23:05.340Z,2.65
2022-08-22T01:23:47.648Z,2.50
2022-08-22T01:24:17.654Z,2.70
2022-08-22T01:25:14.809Z,2.67
2022-08-22T01:25:49.225Z,2.60
2022-08-22T01:26:05.736Z,2.78
2022-08-22T01:26:20.153Z,2.70
2022-08-22T01:26:44.848Z,2.53
2022-08-22T01:27:08.618Z,2.50
2022-08-22T01:27:43.789Z,2.20
2022-08-22T01:28:04.421Z,2.90
2022-08-22T01:29:11.773Z,2.50
2022-08-22T01:29:33.264Z,2.67
2022-08-22T01:29:50.681Z,2.70
2022-08-22T01:30:18.062Z,2.42
2022-08-22T01:30:59.619Z,2.60
2022-08-22T01:31:49.039Z,2.50
2022-08-22T01:32:31.046Z,2.90
2022-08-22T01:33:10.594Z,2.50
2022-08-22T01:33:34.444Z,2.55
2022-08-22T01:34:23.839Z,2.40
2022-08-22T01:34:53.978Z,2.30
2022-08-22T01:35:27.022Z,2.33
2022-08-22T01:36:09.231Z,2.47
2022-08-22T01:36:38.547Z,2.65
2022-08-22T01:37:28.114Z,2.53
2022-08-22T01:38:01.759Z,2.42
2022-08-22T01:38:22.429Z,2.55
2022-08-22T01:38:42.970Z,2.60
2022-08-22T01:39:13.287Z,2.70
2022-08-22T01:39:54.025Z,2.40
2022-08-22T01:40:36.663Z,2.70
2022-08-22T01:41:23.686Z,2.50
2022-08-22T01:41:41.479Z,2.60
2022-08-22T01:42:03.383Z,3.03
2022-08-22T01:42:49.032Z,2.70
2022-08-22T01:43:59.343Z,2.90
2022-08-22T01:44:43.594Z,2.65
2022-08-22T01:45:29.530Z,3.03
2022-08-22T01:45:49.822Z,2.97
2022-08-22T01:46:07.543Z,2.90
2022-08-22T01:46:28.508Z,2.90
2022-08-22T01:46:46.526Z,2.90
2022-08-22T01:47:04.969Z,2.83
2022-08-22T01:47:26.782Z,2.90
2022-08-22T01:48:03.726Z,2.88
2022-08-22T01:48:37.975Z,2.92
2022-08-22T01:48:59.386Z,2.90
2022-08-22T01:49:18.964Z,2.53
2022-08-22T01:49:33.583Z,2.45
2022-08-22T01:50:02.426Z,2.50
2022-08-22T01:50:29.798Z,2.58
2022-08-22T01:50:49.360Z,2.90
2022-08-22T01:51:23.199Z,2.90
2022-08-22T01:51:59.010Z,2.70
2022-08-22T01:52:29.035Z,2.88
2022-08-22T01:52:49.056Z,2.40
2022-08-22T01:53:08.125Z,2.50
2022-08-22T01:53:30.323Z,2.70
2022-08-22T01:53:57.602Z,2.67
2022-08-22T01:54:20.406Z,2.80
2022-08-22T01:54:34.873Z,2.70
2022-08-22T01:54:54.955Z,2.72
2022-08-22T01:55:14.190Z,2.75
2022-08-22T01:55:46.354Z,2.80
2022-08-22T01:56:10.548Z,2.72
2022-08-22T01:56:25.775Z,3.30
2022-08-22T01:56:44.782Z,2.95
2022-08-22T01:57:07.707Z,2.78
2022-08-22T01:57:20.283Z,2.90
2022-08-22T01:57:32.358Z,3.00
2022-08-22T01:57:57.485Z,3.05
2022-08-22T01:58:24.434Z,2.63
2022-08-22T01:58:43.228Z,2.70
2022-08-22T01:58:59.815Z,2.70
2022-08-22T01:59:33.849Z,2.58
2022-08-22T01:59:49.177Z,2.53
2022-08-22T02:00:09.095Z,2.60
2022-08-22T02:00:35.224Z,2.63
2022-08-22T02:01:03.017Z,2.90
2022-08-22T02:01:15.017Z,2.65
2022-08-22T02:01:57.779Z,2.80
2022-08-22T02:02:18.665Z,2.60
2022-08-22T02:02:45.611Z,2.75
2022-08-22T02:03:25.657Z,2.70
2022-08-22T02:04:03.289Z,3.00
2022-08-22T02:04:39.349Z,3.03
2022-08-22T02:04:54.064Z,2.90
2022-08-22T02:05:18.499Z,3.10
2022-08-22T02:05:39.667Z,2.55
2022-08-22T02:05:59.791Z,2.75
2022-08-22T02:06:22.915Z,2.70
2022-08-22T02:06:45.146Z,2.70
2022-08-22T02:07:19.395Z,2.50
2022-08-22T02:07:44.057Z,2.65
2022-08-22T02:08:18.978Z,2.78
2022-08-22T02:08:40.669Z,2.70
2022-08-22T02:09:09.393Z,2.55
2022-08-22T02:09:50.690Z,2.55
2022-08-22T02:10:05.480Z,3.05
2022-08-22T02:10:23.059Z,3.10
2022-08-22T02:11:03.435Z,2.80
2022-08-22T02:11:52.283Z,3.40
2022-08-22T02:12:26.081Z,2.75
2022-08-22T02:12:47.943Z,2.75
2022-08-22T02:13:09.466Z,2.67
2022-08-22T02:13:33.266Z,2.90
2022-08-22T02:13:58.169Z,2.65
2022-08-22T02:14:16.947Z,2.60
2022-08-22T02:14:32.761Z,2.47
2022-08-22T02:14:58.454Z,2.63
2022-08-22T02:15:41.038Z,2.70
2022-08-22T02:16:22.891Z,2.72
2022-08-22T02:16:44.459Z,2.72
2022-08-22T02:17:10.671Z,2.72
2022-08-22T02:17:52.713Z,2.75
2022-08-22T02:18:04.613Z,2.70
2022-08-22T02:18:25.884Z,2.70
2022-08-22T02:18:56.780Z,2.67
2022-08-22T02:19:26.679Z,2.90
2022-08-22T02:19:47.607Z,2.90
2022-08-22T02:20:20.262Z,2.83
2022-08-22T02:20:54.169Z,2.95
2022-08-22T02:21:20.684Z,2.90
2022-08-22T02:21:56.445Z,3.00
2022-08-22T02:22:30.889Z,3.20
2022-08-22T02:23:17.483Z,3.00
2022-08-22T02:23:52.179Z,2.97
2022-08-22T02:24:29.544Z,2.85
2022-08-22T02:25:00.504Z,2.70
2022-08-22T02:25:19.121Z,2.80
2022-08-22T02:25:45.662Z,2.90
2022-08-22T02:26:03.311Z,3.00
2022-08-22T02:26:27.069Z,2.78
2022-08-22T02:27:04.379Z,2.80
2022-08-22T02:27:50.228Z,2.90
2022-08-22T02:28:12.585Z,2.90
2022-08-22T02:28:56.380Z,2.78
2022-08-22T02:29:21.471Z,2.80
2022-08-22T02:30:08.279Z,2.70
2022-08-22T02:30:26.152Z,2.60
2022-08-22T02:31:03.416Z,2.70
2022-08-22T02:31:23.453Z,2.95
2022-08-22T02:31:42.638Z,2.90
2022-08-22T02:32:07.094Z,2.95
2022-08-22T02:32:39.974Z,3.00
2022-08-22T02:33:02.197Z,3.38
2022-08-22T02:33:35.043Z,3.50
2022-08-22T02:33:56.783Z,2.85
2022-08-22T02:34:20.567Z,3.03
2022-08-22T02:34:54.242Z,2.95
2022-08-22T02:35:17.350Z,3.15
2022-08-22T02:35:37.797Z,3.15
2022-08-22T02:35:56.411Z,3.08
2022-08-22T02:36:45.280Z,3.00
2022-08-22T02:37:28.363Z,3.03
2022-08-22T02:37:50.007Z,3.10
2022-08-22T02:38:40.293Z,3.25
2022-08-22T02:39:28.726Z,2.90
2022-08-22T02:40:02.061Z,3.17
2022-08-22T02:40:27.734Z,3.13
2022-08-22T02:40:42.542Z,2.85
2022-08-22T02:41:10.674Z,2.80
2022-08-22T02:41:53.538Z,2.90
2022-08-22T02:42:29.108Z,3.33
2022-08-22T02:42:51.660Z,3.00
2022-08-22T02:43:09.962Z,3.00
2022-08-22T02:43:29.303Z,3.00
2022-08-22T02:44:02.591Z,2.95
2022-08-22T02:44:25.083Z,3.08
2022-08-22T02:44:47.908Z,2.97
2022-08-22T02:45:24.954Z,3.22
2022-08-22T02:45:54.495Z,3.40
2022-08-22T02:46:16.625Z,2.80
2022-08-22T02:46:46.999Z,3.05
2022-08-22T02:47:09.689Z,3.25
2022-08-22T02:47:40.255Z,3.08
2022-08-22T02:48:04.991Z,3.15
2022-08-22T02:48:29.720Z,3.38
2022-08-22T02:48:47.495Z,3.50
2022-08-22T02:49:27.847Z,3.30
2022-08-22T02:50:05.924Z,3.10
2022-08-22T02:51:05.911Z,3.50
2022-08-22T02:51:42.774Z,3.22
2022-08-22T02:52:11.683Z,3.10
2022-08-22T02:52:35.211Z,3.20
2022-08-22T02:53:03.445Z,3.13
2022-08-22T02:53:23.039Z,3.40
2022-08-22T02:54:03.381Z,3.22
2022-08-22T02:55:00.841Z,3.20
2022-08-22T02:55:28.194Z,3.10
2022-08-22T02:55:48.183Z,3.20
2022-08-22T02:56:13.007Z,3.05
2022-08-22T02:56:32.248Z,3.00
2022-08-22T02:57:02.354Z,3.08
2022-08-22T02:57:28.555Z,2.90
2022-08-22T02:57:48.990Z,2.80
2022-08-22T02:58:12.518Z,2.83
2022-08-22T02:58:34.239Z,3.05
2022-08-22T02:58:53.773Z,3.13
2022-08-22T02:59:45.310Z,3.20
2022-08-22T03:00:30.921Z,2.83
2022-08-22T03:00:52.664Z,3.03
2022-08-22T03:01:22.109Z,3.17
2022-08-22T03:01:40.806Z,2.88
2022-08-22T03:01:55.734Z,2.90
2022-08-22T03:02:34.260Z,3.03
2022-08-22T03:03:16.939Z,3.10
2022-08-22T03:03:37.292Z,3.08
2022-08-22T03:03:51.122Z,3.10
2022-08-22T03:04:24.424Z,3.15
2022-08-22T03:04:42.271Z,3.15
2022-08-22T03:05:01.743Z,3.00
2022-08-22T03:05:36.114Z,2.90
2022-08-22T03:05:52.305Z,2.90
2022-08-22T03:06:50.756Z,3.13
2022-08-22T03:07:31.751Z,2.80
2022-08-22T03:07:53.136Z,3.00
2022-08-22T03:08:17.049Z,2.80
2022-08-22T03:08:33.698Z,3.13
2022-08-22T03:09:06.390Z,3.40
2022-08-22T03:09:25.306Z,3.22
2022-08-22T03:09:40.685Z,3.08
2022-08-22T03:09:55.290Z,3.05
2022-08-22T03:10:29.824Z,3.05
2022-08-22T03:10:57.758Z,2.80
2022-08-22T03:11:26.363Z,3.50
2022-08-22T03:11:43.361Z,3.30
2022-08-22T03:12:09.134Z,3.30
2022-08-22T03:12:30.036Z,3.30
2022-08-22T03:13:02.960Z,3.40
2022-08-22T03:13:38.562Z,3.10
2022-08-22T03:13:59.304Z,3.13
2022-08-22T03:14:48.305Z,3.40
2022-08-22T03:15:11.799Z,3.10
2022-08-22T03:15:32.502Z,3.17
2022-08-22T03:16:03.691Z,3.35
2022-08-22T03:16:25.421Z,3.20
2022-08-22T03:16:49.327Z,3.10
2022-08-22T03:17:23.870Z,3.28
2022-08-22T03:17:54.562Z,3.40
2022-08-22T03:18:12.468Z,3.10
2022-08-22T03:18:48.492Z,2.90
2022-08-22T03:19:18.407Z,3.30
2022-08-22T03:19:48.429Z,3.10
2022-08-22T03:20:04.239Z,3.33
2022-08-22T03:20:46.805Z,3.30
2022-08-22T03:21:11.627Z,3.00
2022-08-22T03:21:42.135Z,3.20
2022-08-22T03:22:10.190Z,3.20
2022-08-22T03:22:33.456Z,3.05
2022-08-22T03:23:02.392Z,3.15
2022-08-22T03:23:27.634Z,3.40
2022-08-22T03:23:54.779Z,3.47
2022-08-22T03:24:19.103Z,3.22
2022-08-22T03:24:39.489Z,3.33
2022-08-22T03:25:21.751Z,3.25
2022-08-22T03:25:45.332Z,3.05
2022-08-22T03:26:15.294Z,3.22
2022-08-22T03:26:51.997Z,3.10
2022-08-22T03:27:32.578Z,3.50
2022-08-22T03:27:54.310Z,3.20
2022-08-22T03:28:13.430Z,3.30
2022-08-22T03:28:32.372Z,3.25
2022-08-22T03:29:04.325Z,3.10
2022-08-22T03:29:24.533Z,3.17
2022-08-22T03:29:44.456Z,3.28
2022-08-22T03:30:02.337Z,2.97
2022-08-22T03:30:21.666Z,3.28
2022-08-22T03:30:42.426Z,3.25
2022-08-22T03:30:59.745Z,3.25
2022-08-22T03:31:15.747Z,3.20
2022-08-22T03:31:30.470Z,3.10
2022-08-22T03:32:08.299Z,3.17
2022-08-22T03:32:22.668Z,3.20
2022-08-22T03:32:56.250Z,3.28
2022-08-22T03:33:16.557Z,3.15
2022-08-22T03:33:30.601Z,3.25
2022-08-22T03:33:43.230Z,3.20
2022-08-22T03:34:22.280Z,3.30
2022-08-22T03:34:35.108Z,3.40
2022-08-22T03:35:05.271Z,3.47
2022-08-22T03:35:49.839Z,3.45
2022-08-22T03:36:07.621Z,3.40
2022-08-22T03:36:27.706Z,3.30
2022-08-22T03:36:44.934Z,3.35
2022-08-22T03:37:04.219Z,3.25
2022-08-22T03:37:35.870Z,3.28
2022-08-22T03:37:52.594Z,3.03
2022-08-22T03:38:31.716Z,2.90
2022-08-22T03:38:55.106Z,3.30
2022-08-22T03:39:18.339Z,3.10
2022-08-22T03:39:48.655Z,3.42
2022-08-22T03:40:20.268Z,3.30
2022-08-22T03:40:42.403Z,3.60
2022-08-22T03:41:12.660Z,3.35
2022-08-22T03:41:43.871Z,3.28
2022-08-22T03:41:58.774Z,3.47
2022-08-22T03:42:17.819Z,3.50
2022-08-22T03:42:32.671Z,3.20
2022-08-22T03:43:21.959Z,3.28
2022-08-22T03:43:58.397Z,3.30
2022-08-22T03:44:36.510Z,3.40
2022-08-22T03:45:09.984Z,3.20
2022-08-22T03:45:34.559Z,3.40
2022-08-22T03:46:20.459Z,3.47
2022-08-22T03:46:32.322Z,3.05
2022-08-22T03:47:05.732Z,3.30
2022-08-22T03:48:02.339Z,3.38
2022-08-22T03:48:40.490Z,3.40
2022-08-22T03:49:22.090Z,3.30
2022-08-22T03:50:23.263Z,3.40
2022-08-22T03:51:22.916Z,3.40
2022-08-22T03:52:02.358Z,3.40
2022-08-22T03:52:32.883Z,3.60
2022-08-22T03:53:18.942Z,3.45
2022-08-22T03:53:46.358Z,3.80
2022-08-22T03:54:38.810Z,3.92
2022-08-22T03:55:07.029Z,3.53
2022-08-22T03:56:23.449Z,3.70
2022-08-22T03:57:01.331Z,3.55
2022-08-22T03:57:22.886Z,3.40
2022-08-22T03:58:07.805Z,3.50
2022-08-22T03:58:56.417Z,3.42
2022-08-22T03:59:35.730Z,3.60
2022-08-22T04:00:06.797Z,3.72
2022-08-22T04:00:40.676Z,3.63
2022-08-22T04:01:07.566Z,3.45
2022-08-22T04:01:47.803Z,3.40
2022-08-22T04:02:42.076Z,3.40
2022-08-22T04:03:40.167Z,3.50
2022-08-22T04:04:13.301Z,3.30
2022-08-22T04:04:25.206Z,3.40
2022-08-22T04:05:00.530Z,3.47
2022-08-22T04:05:36.668Z,3.60
2022-08-22T04:06:18.996Z,3.65
2022-08-22T04:06:35.215Z,3.92
2022-08-22T04:06:56.665Z,3.78
2022-08-22T04:07:50.047Z,3.67
2022-08-22T04:08:26.299Z,3.63
2022-08-22T04:08:45.962Z,3.55
2022-08-22T04:09:30.267Z,3.33
2022-08-22T04:09:45.200Z,3.60
2022-08-22T04:10:37.073Z,3.40
2022-08-22T04:11:07.595Z,3.40
2022-08-22T04:11:39.130Z,3.85
2022-08-22T04:12:00.158Z,3.63
2022-08-22T04:12:24.138Z,3.50
2022-08-22T04:13:16.140Z,3.67
2022-08-22T04:13:31.954Z,3.60
2022-08-22T04:14:03.343Z,3.70
2022-08-22T04:14:35.623Z,3.40
2022-08-22T04:14:47.584Z,3.47
2022-08-22T04:15:08.361Z,3.78
2022-08-22T04:16:11.819Z,4.00
2022-08-22T04:16:26.286Z,3.53
2022-08-22T04:17:00.952Z,3.72
2022-08-22T04:17:45.211Z,3.20
2022-08-22T04:18:28.307Z,3.63
2022-08-22T04:18:45.197Z,3.83
2022-08-22T04:19:18.223Z,3.80
2022-08-22T04:20:03.955Z,3.50
2022-08-22T04:20:49.353Z,3.70
2022-08-22T04:21:39.576Z,3.70
2022-08-22T04:22:00.556Z,3.90
2022-08-22T04:22:48.700Z,3.50
2022-08-22T04:23:06.690Z,3.55
2022-08-22T04:23:49.279Z,3.55
2022-08-22T04:24:44.063Z,3.65
2022-08-22T04:25:12.622Z,3.58
2022-08-22T04:25:33.837Z,3.67
2022-08-22T04:25:53.301Z,3.90
2022-08-22T04:26:12.733Z,3.80
2022-08-22T04:26:27.636Z,4.13
2022-08-22T04:26:52.791Z,3.90
2022-08-22T04:27:18.052Z,3.80
2022-08-22T04:27:57.582Z,3.83
2022-08-22T04:28:19.297Z,3.70
2022-08-22T04:28:51.558Z,3.90
2022-08-22T04:29:14.472Z,3.65
2022-08-22T04:29:58.245Z,3.70
2022-08-22T04:30:32.372Z,3.50
2022-08-22T04:30:50.510Z,3.90
2022-08-22T04:31:08.470Z,3.88
2022-08-22T04:31:30.230Z,4.10
2022-08-22T04:31:49.891Z,3.85
2022-08-22T04:32:14.982Z,4.15
2022-08-22T04:33:00.356Z,3.80
2022-08-22T04:33:18.456Z,3.90
2022-08-22T04:33:36.949Z,3.70
2022-08-22T04:34:02.783Z,3.72
2022-08-22T04:34:42.323Z,3.40
2022-08-22T04:35:06.910Z,4.00
2022-08-22T04:35:24.789Z,3.60
2022-08-22T04:35:46.545Z,3.80
2022-08-22T04:36:17.601Z,3.75
2022-08-22T04:36:41.745Z,3.80
2022-08-22T04:37:03.631Z,3.88
2022-08-22T04:37:27.761Z,3.85
2022-08-22T04:37:55.059Z,3.80
2022-08-22T04:38:15.595Z,3.90
2022-08-22T04:38:33.246Z,3.83
2022-08-22T04:39:23.564Z,3.65
2022-08-22T04:39:45.963Z,3.97
2022-08-22T04:40:01.708Z,3.90
2022-08-22T04:41:09.061Z,3.92
2022-08-22T04:41:35.789Z,3.88
2022-08-22T04:42:16.061Z,4.18
2022-08-22T04:42:33.758Z,3.95
2022-08-22T04:42:54.174Z,3.75
2022-08-22T04:43:29.674Z,3.45
2022-08-22T04:43:47.615Z,3.70
2022-08-22T04:44:08.054Z,3.60
2022-08-22T04:44:19.912Z,3.70
2022-08-22T04:44:49.812Z,3.85
2022-08-22T04:45:16.955Z,3.90
2022-08-22T04:45:43.658Z,3.97
2022-08-22T04:46:08.005Z,3.90
2022-08-22T04:46:41.980Z,3.90
2022-08-22T04:47:13.639Z,3.90
2022-08-22T04:47:36.733Z,3.85
2022-08-22T04:48:08.320Z,3.88
2022-08-22T04:48:37.567Z,3.90
2022-08-22T04:49:04.932Z,3.60
2022-08-22T04:49:29.067Z,3.63
2022-08-22T04:49:51.811Z,4.10
2022-08-22T04:50:04.234Z,3.90
2022-08-22T04:50:28.671Z,3.80
2022-08-22T04:51:03.204Z,3.83
2022-08-22T04:51:22.147Z,4.07
2022-08-22T04:51:41.010Z,4.20
2022-08-22T04:52:31.718Z,3.90
2022-08-22T04:53:09.790Z,3.90
2022-08-22T04:53:49.488Z,3.78
2022-08-22T04:54:05.515Z,3.75
2022-08-22T04:54:42.878Z,3.80
2022-08-22T04:55:14.942Z,3.85
2022-08-22T04:55:32.830Z,4.13
2022-08-22T04:56:07.217Z,3.67
2022-08-22T04:56:35.641Z,3.60
2022-08-22T04:57:21.486Z,3.72
2022-08-22T04:57:53.981Z,3.85
2022-08-22T04:58:26.969Z,3.85
2022-08-22T04:58:46.817Z,3.60
2022-08-22T04:59:07.581Z,3.53
2022-08-22T04:59:19.647Z,3.70
2022-08-22T04:59:33.567Z,3.78
2022-08-22T04:59:46.085Z,3.80
2022-08-22T05:00:06.845Z,3.80
2022-08-22T05:00:19.338Z,3.85
2022-08-22T05:01:06.544Z,3.90
2022-08-22T05:01:24.028Z,3.92
2022-08-22T05:01:57.563Z,3.75
2022-08-22T05:02:12.132Z,3.75
2022-08-22T05:02:27.814Z,4.10
2022-08-22T05:02:48.318Z,4.07
2022-08-22T05:03:02.803Z,3.90
2022-08-22T05:03:18.491Z,3.85
2022-08-22T05:03:35.164Z,3.97
2022-08-22T05:03:50.881Z,4.00
2022-08-22T05:04:08.382Z,3.80
2022-08-22T05:04:29.142Z,3.90
2022-08-22T05:05:04.201Z,4.05
2022-08-22T05:05:21.984Z,3.55
2022-08-22T05:05:38.753Z,3.83
2022-08-22T05:05:54.019Z,4.10
2022-08-22T05:06:08.295Z,3.77
2022-08-22T05:06:26.462Z,3.88
2022-08-22T05:06:43.570Z,3.95
2022-08-22T05:07:10.032Z,3.90
2022-08-22T05:07:35.899Z,4.00
2022-08-22T05:07:54.158Z,3.50
2022-08-22T05:08:12.869Z,3.50
2022-08-22T05:08:30.933Z,3.90
2022-08-22T05:08:45.958Z,4.05
2022-08-22T05:09:16.044Z,3.90
2022-08-22T05:09:33.155Z,3.90
2022-08-22T05:09:53.704Z,4.00
2022-08-22T05:10:18.267Z,3.70
2022-08-22T05:10:41.059Z,3.50
2022-08-22T05:10:54.470Z,3.70
2022-08-22T05:11:09.643Z,3.90
2022-08-22T05:11:23.817Z,4.10
2022-08-22T05:11:37.404Z,4.55
2022-08-22T05:11:54.462Z,4.40
2022-08-22T05:12:11.962Z,3.80
2022-08-22T05:12:38.680Z,3.70
2022-08-22T05:13:06.199Z,3.80
2022-08-22T05:13:29.111Z,3.80
2022-08-22T05:13:47.510Z,3.67
2022-08-22T05:14:07.100Z,3.67
2022-08-22T05:14:26.573Z,4.07
2022-08-22T05:14:44.206Z,3.78
2022-08-22T05:15:03.559Z,3.58
2022-08-22T05:15:23.218Z,3.80
2022-08-22T05:15:40.849Z,3.78
2022-08-22T05:15:59.534Z,3.47
2022-08-22T05:16:18.112Z,3.85
2022-08-22T05:16:40.153Z,3.83
2022-08-22T05:16:55.182Z,4.00
2022-08-22T05:17:12.138Z,3.97
2022-08-22T05:17:30.571Z,3.70
2022-08-22T05:17:44.059Z,3.80
2022-08-22T05:18:00.443Z,3.78
2022-08-22T05:18:20.390Z,3.85
2022-08-22T05:18:38.994Z,3.83
2022-08-22T05:19:04.933Z,3.72
2022-08-22T05:19:32.041Z,3.90
2022-08-22T05:19:53.729Z,3.80
2022-08-22T05:20:10.297Z,3.80
2022-08-22T05:20:25.193Z,3.75
2022-08-22T05:20:40.004Z,3.85
2022-08-22T05:20:53.927Z,3.80
2022-08-22T05:21:11.217Z,3.70
2022-08-22T05:21:32.239Z,3.83
2022-08-22T05:21:46.187Z,3.63
2022-08-22T05:21:58.203Z,3.60
2022-08-22T05:22:16.723Z,3.85
2022-08-22T05:22:32.830Z,3.70
2022-08-22T05:22:51.359Z,3.67
2022-08-22T05:23:17.012Z,4.00
2022-08-22T05:23:36.794Z,3.67
2022-08-22T05:23:54.543Z,4.00
2022-08-22T05:24:32.195Z,3.97
2022-08-22T05:24:48.609Z,3.70
2022-08-22T05:25:06.831Z,3.58
2022-08-22T05:25:26.886Z,3.63
2022-08-22T05:25:44.145Z,3.75
2022-08-22T05:26:02.466Z,4.00
2022-08-22T05:26:17.050Z,3.75
2022-08-22T05:26:44.453Z,3.97
2022-08-22T05:27:03.259Z,3.85
2022-08-22T05:27:33.390Z,3.92
2022-08-22T05:27:53.253Z,3.80
2022-08-22T05:28:31.215Z,3.45
2022-08-22T05:28:53.278Z,3.70
2022-08-22T05:29:08.637Z,3.80
2022-08-22T05:29:27.796Z,3.70
2022-08-22T05:29:44.888Z,3.75
2022-08-22T05:30:22.249Z,3.60
2022-08-22T05:30:35.975Z,3.60
2022-08-22T05:30:48.805Z,3.78
2022-08-22T05:31:11.445Z,3.70
2022-08-22T05:31:29.413Z,3.47
2022-08-22T05:31:51.089Z,3.53
2022-08-22T05:32:06.231Z,3.67
2022-08-22T05:32:29.275Z,3.42
2022-08-22T05:32:47.109Z,3.80
2022-08-22T05:33:25.346Z,3.60
2022-08-22T05:33:50.703Z,3.50
2022-08-22T05:34:15.076Z,3.95
2022-08-22T05:34:31.394Z,3.83
2022-08-22T05:34:47.573Z,3.70
2022-08-22T05:35:05.732Z,3.65
2022-08-22T05:35:21.317Z,3.70
2022-08-22T05:35:37.911Z,3.83
2022-08-22T05:35:58.789Z,4.00
2022-08-22T05:36:16.763Z,3.70
2022-08-22T05:36:35.073Z,3.85
2022-08-22T05:36:54.022Z,3.88
2022-08-22T05:37:17.683Z,3.50
2022-08-22T05:37:47.538Z,3.78
2022-08-22T05:38:00.629Z,3.50
2022-08-22T05:38:15.842Z,3.60
2022-08-22T05:38:34.710Z,3.75
2022-08-22T05:38:52.378Z,3.75
2022-08-22T05:39:19.414Z,3.83
2022-08-22T05:39:33.035Z,3.78
2022-08-22T05:39:53.954Z,3.78
2022-08-22T05:40:10.554Z,3.58
2022-08-22T05:40:27.647Z,3.55
2022-08-22T05:40:40.796Z,3.80
2022-08-22T05:40:57.518Z,3.85
2022-08-22T05:41:18.337Z,3.60
2022-08-22T05:41:36.826Z,3.53
2022-08-22T05:41:50.862Z,3.50
2022-08-22T05:42:03.805Z,3.53
2022-08-22T05:42:25.485Z,3.75
2022-08-22T05:42:37.784Z,3.80
2022-08-22T05:42:50.993Z,3.70
2022-08-22T05:43:04.006Z,3.70
2022-08-22T05:43:17.459Z,3.88
2022-08-22T05:43:29.608Z,3.67
2022-08-22T05:43:44.292Z,3.70
2022-08-22T05:43:56.351Z,3.78
2022-08-22T05:44:21.840Z,3.60
2022-08-22T05:44:38.067Z,3.60
2022-08-22T05:44:50.241Z,3.88
2022-08-22T05:45:06.693Z,4.10
2022-08-22T05:45:26.430Z,3.97
2022-08-22T05:45:40.395Z,3.60
2022-08-22T05:45:58.394Z,3.63
2022-08-22T05:46:37.187Z,3.80
2022-08-22T05:47:03.215Z,3.63
2022-08-22T05:47:21.335Z,4.03
2022-08-22T05:47:59.479Z,3.92
2022-08-22T05:48:17.681Z,3.80
2022-08-22T05:48:40.411Z,3.40
2022-08-22T05:49:00.080Z,3.67
2022-08-22T05:49:31.523Z,3.70
2022-08-22T05:50:00.071Z,3.78
2022-08-22T05:50:19.359Z,3.92
2022-08-22T05:50:56.259Z,4.07
2022-08-22T05:51:16.659Z,3.97
2022-08-22T05:51:48.823Z,3.90
2022-08-22T05:52:22.681Z,3.88
2022-08-22T05:52:42.359Z,3.90
2022-08-22T05:52:59.939Z,3.85
2022-08-22T05:53:18.115Z,3.90
2022-08-22T05:53:38.685Z,3.88
2022-08-22T05:54:12.371Z,4.18
2022-08-22T05:54:33.549Z,3.90
2022-08-22T05:54:58.256Z,4.13